TimeEST,TemperatureF,Dew PointF,Humidity,Sea Level PressureIn,VisibilityMPH,Wind Direction,Wind SpeedMPH,Gust SpeedMPH,PrecipitationIn,Events,Conditions,WindDirDegrees,DateUTC
12:06 AM,12.0,5.0,73,29.93,2.0,NNW,16.1,25.3,0.00,Snow,Light Snow,340,2013-01-17 05:06:00
12:31 AM,10.9,3.0,70,29.96,1.8,North,11.5,20.7,0.00,Snow,Light Snow,350,2013-01-17 05:31:00
12:39 AM,10.0,3.0,73,29.97,2.5,NNW,11.5,20.7,0.00,Snow,Light Snow,340,2013-01-17 05:39:00
12:47 AM,10.0,1.9,70,29.97,4.0,North,12.7,-,0.00,Snow,Light Snow,360,2013-01-17 05:47:00
12:55 AM,10.0,1.0,67,30.01,4.0,North,9.2,17.3,0.00,Snow,Light Snow,10,2013-01-17 05:55:00
1:36 AM,8.1,-0.9,67,30.02,4.0,North,11.5,-,0.00,Snow,Light Snow,360,2013-01-17 06:36:00
1:47 AM,7.0,-2.0,67,30.02,5.0,North,12.7,-,0.00,Snow,Light Snow,360,2013-01-17 06:47:00
1:55 AM,7.0,-2.0,67,30.06,4.0,North,10.4,-,0.00,Snow,Light Snow,10,2013-01-17 06:55:00
2:55 AM,3.9,-6.0,64,30.10,10.0,NNE,6.9,-,0.00,,Overcast,20,2013-01-17 07:55:00
3:55 AM,1.9,-7.1,66,30.14,10.0,NE,8.1,-,0.00,,Overcast,40,2013-01-17 08:55:00
4:55 AM,-0.0,-9.0,66,30.16,8.0,ENE,5.8,-,0.00,,Overcast,60,2013-01-17 09:55:00
5:55 AM,-2.0,-11.0,66,30.18,9.0,ENE,6.9,-,0.00,,Overcast,60,2013-01-17 10:55:00
6:55 AM,-2.9,-11.9,65,30.21,10.0,East,4.6,-,0.00,,Overcast,80,2013-01-17 11:55:00
7:55 AM,-2.9,-13.0,62,-9999,10.0,NE,6.9,-,0.00,,Overcast,50,2013-01-17 12:55:00
8:55 AM,-5.1,-14.1,65,30.25,10.0,East,6.9,-,N/A,,Clear,90,2013-01-17 13:55:00
9:40 AM,-4.0,-14.1,62,30.22,10.0,ESE,5.8,-,N/A,,Mostly Cloudy,110,2013-01-17 14:40:00
9:53 AM,-2.2,-14.8,55,30.21,10.0,ESE,5.8,-,N/A,,Scattered Clouds,110,2013-01-17 14:53:00
9:55 AM,-2.9,-13.0,62,30.27,10.0,East,4.6,-,N/A,,Scattered Clouds,100,2013-01-17 14:55:00
10:55 AM,-2.0,-11.0,66,30.26,10.0,SE,8.1,-,N/A,,Overcast,140,2013-01-17 15:55:00
11:44 AM,-0.9,-11.0,62,30.19,2.5,SE,5.8,-,0.00,Snow,Light Snow,130,2013-01-17 16:44:00
11:55 AM,-0.9,-9.9,66,30.24,1.2,SE,5.8,-,0.00,Snow,Light Snow,130,2013-01-17 16:55:00
12:07 PM,-0.9,-9.9,66,30.19,3.0,ESE,6.9,-,0.00,Snow,Light Snow,120,2013-01-17 17:07:00
12:16 PM,-0.9,-9.9,66,30.18,4.0,ESE,5.8,-,0.01,Snow,Light Snow,120,2013-01-17 17:16:00
12:55 PM,1.0,-8.0,66,30.21,4.0,ESE,6.9,-,0.01,,Haze,120,2013-01-17 17:55:00
1:55 PM,3.9,-5.1,66,30.18,2.5,Calm,Calm,-,0.00,Snow,Light Snow,0,2013-01-17 18:55:00
2:03 PM,3.9,-4.0,70,30.12,4.0,East,3.5,-,0.00,Snow,Light Snow,100,2013-01-17 19:03:00
2:18 PM,5.0,-4.0,66,30.11,3.0,East,4.6,-,0.00,Snow,Light Snow,100,2013-01-17 19:18:00
2:22 PM,5.0,-2.9,70,30.11,1.8,Variable,3.5,-,0.00,Snow,Light Snow,0,2013-01-17 19:22:00
2:37 PM,6.1,-2.0,69,30.10,3.0,SSE,5.8,-,0.00,Snow,Light Snow,150,2013-01-17 19:37:00
2:45 PM,7.0,-2.0,67,30.10,9.0,South,3.5,-,0.00,,Overcast,170,2013-01-17 19:45:00
2:55 PM,8.1,-2.0,64,30.16,10.0,Calm,Calm,-,0.00,,Overcast,0,2013-01-17 19:55:00
3:31 PM,12.9,3.0,65,30.09,1.8,West,13.8,26.5,0.00,Snow,Light Snow,280,2013-01-17 20:31:00
3:53 PM,12.2,5.0,73,30.10,0.5,West,20.7,29.9,0.00,Snow,Snow,260,2013-01-17 20:53:00
3:55 PM,12.9,6.1,74,30.15,0.2,West,18.4,29.9,0.00,Snow,Heavy Snow,280,2013-01-17 20:55:00
4:14 PM,12.0,7.0,80,30.10,0.2,West,12.7,24.2,0.01,Snow,Heavy Snow,260,2013-01-17 21:14:00
4:52 PM,12.2,6.8,79,30.10,0.2,West,13.8,-,0.03,Snow,Heavy Snow,280,2013-01-17 21:52:00
4:55 PM,12.0,7.0,80,30.16,0.2,West,11.5,20.7,0.04,Snow,Heavy Snow,280,2013-01-17 21:55:00
5:18 PM,12.0,5.0,73,30.11,0.8,West,16.1,24.2,0.01,Snow,Light Snow,280,2013-01-17 22:18:00
5:27 PM,12.9,3.9,67,30.11,1.0,West,16.1,28.8,0.02,Snow,Light Snow,280,2013-01-17 22:27:00
5:30 PM,12.9,3.9,67,30.11,0.8,West,18.4,24.2,0.02,Snow,Light Snow,280,2013-01-17 22:30:00
5:37 PM,12.0,5.0,73,30.11,0.8,West,16.1,25.3,0.02,Snow,Light Snow,280,2013-01-17 22:37:00
5:55 PM,12.0,6.1,77,30.17,0.5,WNW,18.4,28.8,0.02,Snow,Snow,290,2013-01-17 22:55:00
6:09 PM,12.9,3.9,67,30.13,2.0,WNW,16.1,25.3,0.00,Snow,Light Snow,290,2013-01-17 23:09:00
6:14 PM,12.0,5.0,73,30.12,0.8,West,18.4,29.9,0.00,Snow,Light Snow,280,2013-01-17 23:14:00
6:32 PM,12.9,3.9,67,30.12,2.0,West,17.3,28.8,0.01,Snow,Light Snow,270,2013-01-17 23:32:00
6:55 PM,12.0,6.1,77,30.19,0.5,WNW,20.7,31.1,0.01,Snow,Snow,290,2013-01-17 23:55:00
7:20 PM,12.0,7.0,80,30.14,0.2,West,16.1,29.9,0.01,Snow,Heavy Snow,270,2013-01-18 00:20:00
7:34 PM,12.9,7.0,77,30.14,1.0,West,19.6,31.1,0.02,Snow,Light Snow,280,2013-01-18 00:34:00
7:42 PM,12.0,6.1,77,30.14,0.8,West,17.3,31.1,0.02,Snow,Light Snow,280,2013-01-18 00:42:00
7:55 PM,12.0,7.0,80,30.19,0.5,West,15.0,26.5,0.02,Snow,Snow,280,2013-01-18 00:55:00
8:02 PM,12.0,8.1,84,30.14,0.5,West,12.7,25.3,0.01,Fog-Snow,Snow,280,2013-01-18 01:02:00
8:09 PM,12.0,6.1,77,30.14,1.0,West,19.6,27.6,0.01,Snow,Light Snow,280,2013-01-18 01:09:00
8:17 PM,12.9,5.0,71,30.15,2.0,West,19.6,27.6,0.01,Snow,Light Snow,280,2013-01-18 01:17:00
8:24 PM,12.0,5.0,73,30.15,1.5,WNW,18.4,28.8,0.01,Snow,Light Snow,290,2013-01-18 01:24:00
8:31 PM,12.9,1.9,62,30.15,3.0,West,20.7,28.8,0.01,Snow,Light Snow,280,2013-01-18 01:31:00
8:55 PM,14.0,-0.0,54,30.21,10.0,WNW,16.1,24.2,0.01,,Overcast,290,2013-01-18 01:55:00
9:07 PM,12.0,5.0,73,30.16,1.8,WNW,17.3,-,0.00,Snow,Light Snow,290,2013-01-18 02:07:00
9:12 PM,12.9,6.1,74,30.17,0.8,NW,16.1,25.3,0.00,Snow,Light Snow,310,2013-01-18 02:12:00
9:27 PM,12.0,6.1,77,30.17,2.0,West,12.7,21.9,0.00,Snow,Light Snow,260,2013-01-18 02:27:00
9:38 PM,12.0,7.0,80,30.16,1.0,West,13.8,-,0.01,Snow,Light Snow,280,2013-01-18 02:38:00
9:45 PM,12.0,7.0,80,30.16,0.5,West,13.8,20.7,0.01,Snow,Snow,270,2013-01-18 02:45:00
9:55 PM,10.9,7.0,84,30.22,0.5,West,12.7,-,0.02,Fog-Snow,Snow,260,2013-01-18 02:55:00
10:02 PM,10.9,7.0,84,30.16,1.0,West,10.4,-,0.00,Snow,Light Snow,260,2013-01-18 03:02:00
10:15 PM,10.9,7.0,84,30.17,0.8,West,17.3,-,0.01,Snow,Light Snow,260,2013-01-18 03:15:00
10:55 PM,9.0,3.9,80,30.23,0.2,WSW,17.3,21.9,0.06,Snow,Heavy Snow,240,2013-01-18 03:55:00
11:55 PM,8.1,3.0,80,30.23,0.8,WSW,12.7,-,0.08,Snow,Light Snow,250,2013-01-18 04:55:00